Time;durP1;ratioP1;P1;durP2;ratioP2;P2;SDS_P1;SDS_P2;PMS_P1;PMS_P2;Temp;Humidity;BMP_temperature;BMP_pressure;BME280_temperature;BME280_humidity;BME280_pressure;Samples;Min_cycle;Max_cycle;Signal;HPM_P1;HPM_P2
2021/12/05 00:18:24;;;;;;;6.20;2.22;;;;;;;;;;4915275;29;20224;-85
2021/12/05 00:21:15;;;;;;;2.97;2.10;;;;;;;;;;4914928;29;20269;-85
2021/12/05 00:23:46;;;;;;;1.60;1.50;;;;;;;;;;4915457;29;20205;-84
2021/12/05 00:26:19;;;;;;;1.52;1.42;;;;;;;;;;4915176;29;20253;-85
2021/12/05 00:29:11;;;;;;;2.30;1.40;;;;;;;;;;4915023;29;20277;-85
2021/12/05 00:32:00;;;;;;;2.42;1.85;;;;;;;;;;4914498;29;20260;-85
2021/12/05 00:43:38;;;;;;;2.05;1.83;;;;;;;;;;5132242;27;20178;-86
2021/12/05 00:46:24;;;;;;;3.47;1.67;;;;;;;;;;5132806;28;20219;-86
2021/12/05 00:49:28;;;;;;;3.13;1.65;;;;;;;;;;5132980;27;20556;-85
2021/12/05 00:55:24;;;;;;;1.83;1.73;;;;;;;;;;5132715;27;20244;-87
2021/12/05 01:01:03;;;;;;;2.40;1.60;;;;;;;;;;5118433;27;20549;-86
2021/12/05 01:06:49;;;;;;;2.17;1.50;;;;;;;;;;5132109;28;20303;-86
2021/12/05 01:09:27;;;;;;;2.95;2.30;;;;;;;;;;5132631;28;20207;-86
2021/12/05 01:15:04;;;;;;;4.13;2.30;;;;;;;;;;5068678;28;20286;-86
2021/12/05 01:17:58;;;;;;;1.48;1.38;;;;;;;;;;5068650;28;20224;-86
2021/12/05 01:20:39;;;;;;;2.13;1.60;;;;;;;;;;5111145;27;20207;-87
2021/12/05 01:23:20;;;;;;;2.28;1.98;;;;;;;;;;5131920;27;20651;-85
2021/12/05 01:25:56;;;;;;;3.38;2.00;;;;;;;;;;5131816;28;20669;-86
2021/12/05 01:28:36;;;;;;;4.18;2.20;;;;;;;;;;5131747;28;20223;-86
2021/12/05 01:31:18;;;;;;;2.58;2.30;;;;;;;;;;5131734;27;20651;-85
2021/12/05 01:33:58;;;;;;;3.05;2.30;;;;;;;;;;5131754;28;20243;-86
2021/12/05 01:36:45;;;;;;;5.13;2.20;;;;;;;;;;5131166;28;20233;-86
2021/12/05 01:39:27;;;;;;;3.03;2.47;;;;;;;;;;5132069;28;20187;-85
2021/12/05 01:53:38;;;;;;;3.45;2.85;;;;;;;;;;5117838;28;20237;-86
2021/12/05 01:56:50;;;;;;;2.30;2.10;;;;;;;;;;5117769;28;20228;-85
2021/12/05 01:59:35;;;;;;;1.90;1.70;;;;;;;;;;5118393;28;20284;-85
2021/12/05 02:02:41;;;;;;;2.03;1.85;;;;;;;;;;5117529;28;20631;-86
2021/12/05 02:08:33;;;;;;;3.30;1.70;;;;;;;;;;5115872;28;20260;-87
2021/12/05 02:33:29;;;;;;;1.73;1.45;;;;;;;;;;5101758;27;20223;-85
2021/12/05 02:36:23;;;;;;;2.72;1.77;;;;;;;;;;5118876;28;20231;-86
2021/12/05 02:39:11;;;;;;;1.77;1.67;;;;;;;;;;5119205;28;20207;-86
2021/12/05 02:41:42;;;;;;;1.52;1.42;;;;;;;;;;5118977;28;20227;-85
2021/12/05 02:44:15;;;;;;;1.83;1.67;;;;;;;;;;5119091;27;20192;-85
2021/12/05 02:46:46;;;;;;;1.40;1.30;;;;;;;;;;5118832;27;20222;-85
2021/12/05 02:49:16;;;;;;;1.80;1.67;;;;;;;;;;5119189;28;20192;-85
2021/12/05 02:51:52;;;;;;;2.45;1.83;;;;;;;;;;5118666;28;20227;-85
2021/12/05 02:54:26;;;;;;;2.78;2.38;;;;;;;;;;5119159;28;20614;-86
2021/12/05 02:56:59;;;;;;;1.70;1.60;;;;;;;;;;5119365;28;20287;-86
2021/12/05 02:59:43;;;;;;;2.67;1.50;;;;;;;;;;5117399;28;20237;-85
2021/12/05 03:02:14;;;;;;;1.25;1.25;;;;;;;;;;5118591;28;20184;-85
2021/12/05 03:04:46;;;;;;;3.78;2.20;;;;;;;;;;5118212;28;20188;-86
2021/12/05 03:07:15;;;;;;;2.20;1.73;;;;;;;;;;5118207;28;20227;-86
2021/12/05 03:09:46;;;;;;;1.80;1.70;;;;;;;;;;5118380;28;20202;-85
2021/12/05 03:12:17;;;;;;;2.47;2.25;;;;;;;;;;5118621;28;20187;-86
2021/12/05 03:14:52;;;;;;;1.77;1.67;;;;;;;;;;5118345;28;20286;-85
2021/12/05 03:17:21;;;;;;;2.10;1.95;;;;;;;;;;5117531;28;20234;-85
2021/12/05 03:19:50;;;;;;;2.67;1.70;;;;;;;;;;5118291;27;20206;-85
2021/12/05 03:22:19;;;;;;;1.50;1.40;;;;;;;;;;5117931;28;20206;-85
2021/12/05 03:24:49;;;;;;;2.13;1.80;;;;;;;;;;5117555;28;20645;-85
2021/12/05 03:27:25;;;;;;;1.83;1.73;;;;;;;;;;5118006;28;20215;-85
2021/12/05 03:29:53;;;;;;;3.97;2.42;;;;;;;;;;5116910;28;20202;-86
2021/12/05 03:32:28;;;;;;;3.00;2.03;;;;;;;;;;5118164;28;20203;-86
2021/12/05 03:34:56;;;;;;;1.60;1.50;;;;;;;;;;5117653;28;20199;-86
2021/12/05 03:37:23;;;;;;;1.50;1.40;;;;;;;;;;5117563;28;20323;-86
2021/12/05 03:39:52;;;;;;;2.83;1.90;;;;;;;;;;5117374;28;20211;-85
2021/12/05 03:42:22;;;;;;;2.05;1.85;;;;;;;;;;5117772;28;20184;-85
2021/12/05 03:44:51;;;;;;;2.67;1.58;;;;;;;;;;5117113;28;20195;-85
2021/12/05 03:47:28;;;;;;;2.30;1.73;;;;;;;;;;5117527;28;20704;-85
2021/12/05 03:49:57;;;;;;;1.70;1.30;;;;;;;;;;5117516;28;20303;-85
2021/12/05 03:52:25;;;;;;;1.05;1.00;;;;;;;;;;5116638;28;20195;-84
2021/12/05 03:55:00;;;;;;;0.98;0.93;;;;;;;;;;5116525;27;20199;-85
2021/12/05 03:57:34;;;;;;;1.48;1.38;;;;;;;;;;5117106;28;20703;-85
2021/12/05 04:00:07;;;;;;;5.97;2.35;;;;;;;;;;5117792;28;20195;-86
2021/12/05 04:02:36;;;;;;;4.05;2.85;;;;;;;;;;5116790;28;20199;-85
2021/12/05 04:05:07;;;;;;;1.33;1.23;;;;;;;;;;5117787;28;20563;-85
2021/12/05 04:07:36;;;;;;;1.85;1.45;;;;;;;;;;5116539;28;20226;-85
2021/12/05 04:10:06;;;;;;;2.45;1.75;;;;;;;;;;5116658;28;20555;-84
2021/12/05 04:12:36;;;;;;;2.70;2.17;;;;;;;;;;5116976;28;20180;-85
2021/12/05 04:15:10;;;;;;;2.72;1.92;;;;;;;;;;5117101;28;20211;-85
2021/12/05 04:17:43;;;;;;;3.42;1.83;;;;;;;;;;5117032;28;20228;-85
2021/12/05 04:20:16;;;;;;;1.70;1.50;;;;;;;;;;5117244;28;20187;-86
2021/12/05 04:22:54;;;;;;;3.05;1.85;;;;;;;;;;5116437;28;20629;-86
2021/12/05 04:25:34;;;;;;;2.60;1.83;;;;;;;;;;5117238;28;20697;-85
2021/12/05 04:28:05;;;;;;;2.20;1.85;;;;;;;;;;5117050;28;20306;-86
2021/12/05 04:30:33;;;;;;;1.20;1.10;;;;;;;;;;5117657;28;20194;-84
2021/12/05 04:33:00;;;;;;;1.40;1.30;;;;;;;;;;5117149;28;20191;-85
2021/12/05 04:35:28;;;;;;;1.58;1.48;;;;;;;;;;5115900;28;20220;-85
2021/12/05 04:37:57;;;;;;;1.10;1.10;;;;;;;;;;5116734;28;20234;-87
2021/12/05 04:40:45;;;;;;;1.52;1.42;;;;;;;;;;5116683;28;20182;-85
2021/12/05 04:43:18;;;;;;;1.95;1.38;;;;;;;;;;5117251;28;20650;-85
2021/12/05 04:45:46;;;;;;;2.05;1.30;;;;;;;;;;5116956;28;20204;-86
2021/12/05 04:48:16;;;;;;;2.03;1.83;;;;;;;;;;5117450;28;20184;-85
2021/12/05 04:50:51;;;;;;;2.53;1.50;;;;;;;;;;5117500;28;20198;-85
2021/12/05 04:53:28;;;;;;;1.63;1.52;;;;;;;;;;5117092;28;20186;-85
2021/12/05 04:55:58;;;;;;;2.03;1.88;;;;;;;;;;5116364;27;20203;-86
2021/12/05 04:58:26;;;;;;;2.15;1.50;;;;;;;;;;5116897;28;20200;-85
2021/12/05 05:00:57;;;;;;;1.33;1.20;;;;;;;;;;5117423;28;20188;-86
2021/12/05 05:03:27;;;;;;;1.33;1.23;;;;;;;;;;5116554;28;20202;-85
2021/12/05 05:06:01;;;;;;;1.88;1.63;;;;;;;;;;5116193;28;20184;-85
2021/12/05 05:08:31;;;;;;;1.45;1.35;;;;;;;;;;5116334;28;20554;-84
2021/12/05 05:11:00;;;;;;;1.77;1.42;;;;;;;;;;5115821;28;20233;-84
2021/12/05 05:13:29;;;;;;;1.40;1.30;;;;;;;;;;5115974;28;20190;-84
2021/12/05 05:15:58;;;;;;;1.33;1.23;;;;;;;;;;5115294;28;20225;-84
2021/12/05 05:18:33;;;;;;;2.17;1.50;;;;;;;;;;5116194;28;20207;-84
2021/12/05 05:21:08;;;;;;;1.13;1.13;;;;;;;;;;5115783;28;20283;-84
2021/12/05 05:23:49;;;;;;;3.00;1.30;;;;;;;;;;5118246;28;20184;-85
2021/12/05 05:40:28;;;;;;;2.72;1.70;;;;;;;;;;5119283;28;20202;-84
2021/12/05 05:48:40;;;;;;;1.30;1.20;;;;;;;;;;5101363;28;20196;-84
2021/12/05 05:51:11;;;;;;;1.70;1.20;;;;;;;;;;5099855;28;20210;-85
2021/12/05 05:53:48;;;;;;;3.00;1.27;;;;;;;;;;5099195;28;20200;-85
2021/12/05 05:56:26;;;;;;;1.23;1.15;;;;;;;;;;5098943;28;20239;-85
2021/12/05 05:59:02;;;;;;;3.25;1.98;;;;;;;;;;5098909;28;20212;-85
2021/12/05 06:01:56;;;;;;;2.42;1.95;;;;;;;;;;5099360;28;20188;-85
2021/12/05 06:04:23;;;;;;;4.95;2.55;;;;;;;;;;5099027;28;20196;-85
2021/12/05 06:06:52;;;;;;;2.22;1.95;;;;;;;;;;5099336;28;20219;-84
2021/12/05 06:09:20;;;;;;;2.80;2.08;;;;;;;;;;5098635;28;20588;-85
2021/12/05 06:11:48;;;;;;;4.82;2.53;;;;;;;;;;5099453;28;20196;-84
2021/12/05 06:14:16;;;;;;;3.22;2.63;;;;;;;;;;5098607;28;20192;-84
2021/12/05 06:16:44;;;;;;;4.35;2.30;;;;;;;;;;5097903;28;20231;-84
2021/12/05 06:19:12;;;;;;;3.00;1.92;;;;;;;;;;5098093;28;20208;-84
2021/12/05 06:21:40;;;;;;;1.50;1.40;;;;;;;;;;5097796;28;20195;-85
2021/12/05 06:24:07;;;;;;;1.60;1.40;;;;;;;;;;5098852;28;20181;-85
2021/12/05 06:26:35;;;;;;;2.83;2.00;;;;;;;;;;5098725;28;20622;-85
2021/12/05 06:29:08;;;;;;;1.60;1.50;;;;;;;;;;5097805;28;20257;-83
2021/12/05 06:31:55;;;;;;;2.95;1.70;;;;;;;;;;5098444;28;20185;-84
2021/12/05 06:37:27;;;;;;;1.83;1.73;;;;;;;;;;5097085;28;20262;-85
2021/12/05 06:48:19;;;;;;;2.28;1.13;;;;;;;;;;5109114;28;20207;-85
2021/12/05 06:50:47;;;;;;;0.80;0.80;;;;;;;;;;5115373;28;20203;-85
2021/12/05 06:53:14;;;;;;;1.00;1.00;;;;;;;;;;5116823;28;20195;-84
2021/12/05 06:55:42;;;;;;;1.42;1.10;;;;;;;;;;5116209;28;20214;-85
2021/12/05 06:58:09;;;;;;;4.47;1.75;;;;;;;;;;5116561;28;20229;-85
2021/12/05 07:00:37;;;;;;;1.55;1.42;;;;;;;;;;5116739;28;20219;-84
2021/12/05 07:03:07;;;;;;;1.90;1.80;;;;;;;;;;5097551;28;20313;-84
2021/12/05 07:05:43;;;;;;;9.90;2.63;;;;;;;;;;5095581;28;20670;-84
2021/12/05 07:08:14;;;;;;;2.65;2.30;;;;;;;;;;5106225;28;20216;-84
2021/12/05 07:10:48;;;;;;;5.97;2.78;;;;;;;;;;5115938;28;20715;-83
2021/12/05 07:16:08;;;;;;;2.55;2.20;;;;;;;;;;5117076;28;20198;-84
2021/12/05 07:18:43;;;;;;;1.80;1.70;;;;;;;;;;5116383;28;20210;-84
2021/12/05 07:21:34;;;;;;;1.98;1.88;;;;;;;;;;5115927;28;20195;-84
2021/12/05 07:24:10;;;;;;;5.60;3.25;;;;;;;;;;5116289;28;20200;-85
2021/12/05 07:26:52;;;;;;;3.92;3.00;;;;;;;;;;5117264;28;20219;-84
2021/12/05 07:40:25;;;;;;;6.82;1.85;;;;;;;;;;5113477;28;20668;-85
2021/12/05 07:42:54;;;;;;;1.67;1.55;;;;;;;;;;5096499;28;20287;-85
2021/12/05 07:45:29;;;;;;;2.45;1.52;;;;;;;;;;5110577;28;20196;-86
2021/12/05 07:48:01;;;;;;;2.78;1.75;;;;;;;;;;5100062;28;20224;-84
2021/12/05 07:50:39;;;;;;;1.80;1.70;;;;;;;;;;5095665;28;20185;-83
2021/12/05 07:53:16;;;;;;;2.38;1.95;;;;;;;;;;5096051;28;20266;-82
2021/12/05 07:55:46;;;;;;;1.40;1.33;;;;;;;;;;5097459;28;20200;-84
2021/12/05 07:58:28;;;;;;;1.67;1.38;;;;;;;;;;5098013;28;20200;-85
2021/12/05 08:01:03;;;;;;;1.30;1.13;;;;;;;;;;5133705;27;20623;-84
2021/12/05 08:14:42;;;;;;;2.03;1.83;;;;;;;;;;5136033;27;20324;-86
2021/12/05 08:17:15;;;;;;;1.15;1.08;;;;;;;;;;5136033;27;20240;-84
2021/12/05 08:19:43;;;;;;;1.30;1.20;;;;;;;;;;5136325;27;20203;-84
2021/12/05 08:22:10;;;;;;;2.53;1.75;;;;;;;;;;5135162;27;20191;-86
2021/12/05 08:24:41;;;;;;;2.58;1.65;;;;;;;;;;5136636;27;20185;-85
2021/12/05 08:27:13;;;;;;;1.90;1.67;;;;;;;;;;5119643;27;20223;-84
2021/12/05 08:29:45;;;;;;;2.83;2.22;;;;;;;;;;5116507;28;20192;-85
2021/12/05 08:32:25;;;;;;;3.10;2.50;;;;;;;;;;5116158;28;20187;-84
2021/12/05 08:35:14;;;;;;;2.28;1.80;;;;;;;;;;5104357;28;20188;-86
2021/12/05 08:40:46;;;;;;;2.55;1.60;;;;;;;;;;5094821;28;20223;-84
2021/12/05 09:30:47;;;;;;;7.72;2.45;;;;;;;;;;5114154;28;20191;-84
2021/12/05 10:06:51;;;;;;;2.53;1.88;;;;;;;;;;5136230;27;20230;-84
2021/12/05 10:09:39;;;;;;;1.55;1.40;;;;;;;;;;5121504;27;20227;-84
2021/12/05 10:12:32;;;;;;;2.20;1.63;;;;;;;;;;5114407;28;20226;-84
2021/12/05 10:15:30;;;;;;;3.65;1.70;;;;;;;;;;5117207;28;20643;-85
2021/12/05 10:27:14;;;;;;;1.63;1.48;;;;;;;;;;5109449;28;20234;-84
2021/12/05 10:35:41;;;;;;;1.33;1.10;;;;;;;;;;5112083;28;20564;-84
2021/12/05 10:38:16;;;;;;;4.93;1.30;;;;;;;;;;5116797;28;20223;-84
2021/12/05 10:40:53;;;;;;;2.60;2.40;;;;;;;;;;5106757;28;20226;-85
2021/12/05 10:43:23;;;;;;;2.88;1.40;;;;;;;;;;5117015;28;20203;-85
2021/12/05 10:45:54;;;;;;;1.95;1.42;;;;;;;;;;5099183;28;20207;-85
2021/12/05 10:48:26;;;;;;;2.35;1.50;;;;;;;;;;5099133;28;20181;-83
2021/12/05 10:50:57;;;;;;;1.58;1.38;;;;;;;;;;5101623;28;20177;-83
2021/12/05 10:53:37;;;;;;;1.92;1.35;;;;;;;;;;5100343;28;20196;-83
2021/12/05 10:56:19;;;;;;;2.08;1.40;;;;;;;;;;5102299;28;20570;-84
2021/12/05 10:58:52;;;;;;;1.75;1.17;;;;;;;;;;5109117;28;20207;-83
2021/12/05 11:01:26;;;;;;;2.67;1.40;;;;;;;;;;5099717;28;20204;-84
2021/12/05 11:03:57;;;;;;;4.35;1.60;;;;;;;;;;5099277;28;20196;-83
2021/12/05 11:06:37;;;;;;;1.67;1.30;;;;;;;;;;5098978;28;20223;-83
2021/12/05 11:09:11;;;;;;;1.35;1.25;;;;;;;;;;5098880;28;20180;-84
2021/12/05 11:11:40;;;;;;;3.95;2.20;;;;;;;;;;5097281;28;20181;-82
2021/12/05 11:14:15;;;;;;;2.72;1.75;;;;;;;;;;5098034;28;20200;-83
2021/12/05 11:16:54;;;;;;;1.42;1.20;;;;;;;;;;5099131;28;20216;-83
2021/12/05 11:19:26;;;;;;;3.22;2.03;;;;;;;;;;5104380;28;20195;-84
2021/12/05 11:22:05;;;;;;;2.30;1.50;;;;;;;;;;5107032;28;20212;-83
2021/12/05 11:24:37;;;;;;;1.55;1.20;;;;;;;;;;5100112;28;20181;-83
2021/12/05 11:27:24;;;;;;;1.98;1.25;;;;;;;;;;5104213;28;21014;-83
2021/12/05 11:30:10;;;;;;;1.70;1.00;;;;;;;;;;5120358;28;20223;-81
2021/12/05 11:32:42;;;;;;;1.20;1.10;;;;;;;;;;5110583;28;20195;-83
2021/12/05 11:35:32;;;;;;;1.77;1.27;;;;;;;;;;5110179;28;20192;-83
2021/12/05 11:38:07;;;;;;;1.25;1.15;;;;;;;;;;5120860;28;20216;-85
2021/12/05 11:40:54;;;;;;;1.55;1.48;;;;;;;;;;5121830;28;20202;-83
2021/12/05 11:43:28;;;;;;;1.02;1.00;;;;;;;;;;5111428;28;20658;-84
2021/12/05 11:46:03;;;;;;;1.55;1.45;;;;;;;;;;5113806;28;20200;-84
2021/12/05 11:48:34;;;;;;;1.45;1.35;;;;;;;;;;5106732;28;20286;-83
2021/12/05 11:51:22;;;;;;;1.20;1.20;;;;;;;;;;5102088;28;20692;-83
2021/12/05 11:53:54;;;;;;;1.70;1.10;;;;;;;;;;5101948;28;20207;-83
2021/12/05 11:56:41;;;;;;;4.57;2.42;;;;;;;;;;5110808;28;20275;-82
2021/12/05 11:59:15;;;;;;;1.50;1.20;;;;;;;;;;5102124;28;20189;-82
2021/12/05 12:01:50;;;;;;;1.48;1.38;;;;;;;;;;5102367;28;20207;-83
2021/12/05 12:04:24;;;;;;;1.48;1.27;;;;;;;;;;5101975;28;20571;-83
2021/12/05 12:07:12;;;;;;;1.95;1.40;;;;;;;;;;5105412;28;20581;-83
2021/12/05 12:09:40;;;;;;;1.58;1.50;;;;;;;;;;5102046;28;20580;-83
2021/12/05 12:12:10;;;;;;;1.55;1.27;;;;;;;;;;5120120;28;20191;-83
2021/12/05 12:14:37;;;;;;;1.20;1.05;;;;;;;;;;5109333;28;20192;-83
2021/12/05 12:17:14;;;;;;;1.17;1.00;;;;;;;;;;5117280;28;20222;-82
2021/12/05 12:19:42;;;;;;;1.80;1.20;;;;;;;;;;5115535;28;20184;-83
2021/12/05 12:22:10;;;;;;;1.17;1.05;;;;;;;;;;5115494;28;20218;-83
2021/12/05 12:24:41;;;;;;;1.27;1.17;;;;;;;;;;5106408;28;20203;-83
2021/12/05 12:27:12;;;;;;;1.25;1.15;;;;;;;;;;5113342;28;20211;-83
2021/12/05 12:29:40;;;;;;;0.93;0.93;;;;;;;;;;5110174;28;20541;-81
2021/12/05 12:32:15;;;;;;;0.88;0.88;;;;;;;;;;5101800;28;20192;-84
2021/12/05 12:34:44;;;;;;;2.45;1.08;;;;;;;;;;5118458;28;20215;-83
2021/12/05 12:37:14;;;;;;;1.00;1.00;;;;;;;;;;5117297;28;20231;-84
2021/12/05 12:39:45;;;;;;;1.20;1.10;;;;;;;;;;5120492;28;20195;-83
2021/12/05 12:42:20;;;;;;;1.00;1.00;;;;;;;;;;5109500;28;20210;-83
2021/12/05 12:45:08;;;;;;;1.60;1.23;;;;;;;;;;5112370;28;20191;-83
2021/12/05 12:47:39;;;;;;;1.40;1.38;;;;;;;;;;5106605;28;20226;-82
2021/12/05 12:50:50;;;;;;;2.45;1.10;;;;;;;;;;5115814;28;20192;-82
2021/12/05 12:53:23;;;;;;;1.00;1.00;;;;;;;;;;5029389;28;20197;-81
2021/12/05 12:55:58;;;;;;;1.00;1.00;;;;;;;;;;5095691;28;20204;-82
2021/12/05 12:58:48;;;;;;;1.70;1.10;;;;;;;;;;5112047;28;20271;-83
2021/12/05 13:01:35;;;;;;;1.35;1.20;;;;;;;;;;5112907;28;20195;-84
2021/12/05 13:09:57;;;;;;;2.08;1.27;;;;;;;;;;5110405;28;20658;-82
2021/12/05 13:10:17;;;;;;;0.82;0.82;;;;;;;;;;5105331;28;20226;-82
2021/12/05 13:12:53;;;;;;;0.90;0.90;;;;;;;;;;5102831;28;20195;-83
2021/12/05 13:15:36;;;;;;;1.20;1.17;;;;;;;;;;5114915;28;20665;-83
2021/12/05 13:18:18;;;;;;;1.65;1.00;;;;;;;;;;5107265;28;20255;-82
2021/12/05 13:20:52;;;;;;;0.77;0.77;;;;;;;;;;5125964;22;20655;-81
2021/12/05 13:23:27;;;;;;;1.55;1.45;;;;;;;;;;5084790;28;20235;-83
2021/12/05 13:26:11;;;;;;;0.80;0.80;;;;;;;;;;5092106;28;20237;-80
2021/12/05 13:28:40;;;;;;;1.42;1.10;;;;;;;;;;5092213;28;20207;-82
2021/12/05 13:31:38;;;;;;;2.17;1.25;;;;;;;;;;5098280;28;20250;-82
2021/12/05 13:34:32;;;;;;;1.30;1.25;;;;;;;;;;5111985;28;20649;-84
2021/12/05 13:37:24;;;;;;;1.38;1.05;;;;;;;;;;5113208;28;20184;-84
2021/12/05 13:39:55;;;;;;;0.80;0.80;;;;;;;;;;5112969;28;20206;-83
2021/12/05 13:42:25;;;;;;;1.50;1.17;;;;;;;;;;5112911;28;20235;-83
2021/12/05 13:45:15;;;;;;;1.95;1.10;;;;;;;;;;5116147;28;20188;-83
2021/12/05 13:48:04;;;;;;;1.25;1.05;;;;;;;;;;5116511;28;20652;-84
2021/12/05 13:50:42;;;;;;;1.50;1.23;;;;;;;;;;5116327;28;20617;-85
2021/12/05 13:53:22;;;;;;;2.03;1.13;;;;;;;;;;5097061;28;20192;-83
2021/12/05 13:56:08;;;;;;;0.88;0.88;;;;;;;;;;5095824;28;20185;-83
2021/12/05 13:58:45;;;;;;;0.75;0.75;;;;;;;;;;5095530;28;20194;-83
2021/12/05 14:01:17;;;;;;;0.77;0.75;;;;;;;;;;5095071;28;20220;-84
2021/12/05 14:04:24;;;;;;;1.48;0.93;;;;;;;;;;5106531;28;20238;-84
2021/12/05 14:06:58;;;;;;;0.80;0.80;;;;;;;;;;5094592;28;20200;-84
2021/12/05 14:09:34;;;;;;;0.68;0.68;;;;;;;;;;5095361;28;20254;-84
2021/12/05 14:12:09;;;;;;;0.65;0.57;;;;;;;;;;5095682;28;20223;-84
2021/12/05 14:14:40;;;;;;;0.70;0.70;;;;;;;;;;5094836;28;20192;-84
2021/12/05 14:17:13;;;;;;;0.80;0.80;;;;;;;;;;5095227;28;20556;-83
2021/12/05 14:19:46;;;;;;;1.25;1.00;;;;;;;;;;5096165;28;20194;-85
2021/12/05 14:22:16;;;;;;;0.90;0.90;;;;;;;;;;5095926;28;20243;-85
2021/12/05 14:24:47;;;;;;;0.63;0.63;;;;;;;;;;5095931;28;20554;-84
2021/12/05 14:27:18;;;;;;;0.70;0.70;;;;;;;;;;5095819;28;20649;-83
2021/12/05 14:29:48;;;;;;;0.73;0.73;;;;;;;;;;5095718;28;20660;-83
2021/12/05 14:32:23;;;;;;;0.80;0.80;;;;;;;;;;5096558;28;20228;-83
2021/12/05 14:34:56;;;;;;;0.80;0.80;;;;;;;;;;5095719;28;20204;-82
2021/12/05 14:37:27;;;;;;;0.73;0.70;;;;;;;;;;5095642;28;20189;-83
2021/12/05 14:39:59;;;;;;;0.73;0.73;;;;;;;;;;5095861;28;20192;-83
2021/12/05 14:42:30;;;;;;;1.25;1.00;;;;;;;;;;5097226;28;20228;-83
2021/12/05 14:45:02;;;;;;;1.02;0.90;;;;;;;;;;5097517;28;20185;-83
2021/12/05 14:47:33;;;;;;;0.80;0.80;;;;;;;;;;5097642;28;20208;-82
2021/12/05 14:50:06;;;;;;;1.40;1.30;;;;;;;;;;5096912;28;20180;-83
2021/12/05 14:52:36;;;;;;;1.00;1.00;;;;;;;;;;5117747;28;20223;-83
2021/12/05 14:55:08;;;;;;;0.82;0.82;;;;;;;;;;5117232;28;20204;-83
2021/12/05 14:57:41;;;;;;;1.08;0.98;;;;;;;;;;5117589;28;20202;-83
2021/12/05 15:00:14;;;;;;;1.00;1.00;;;;;;;;;;5116466;28;20180;-83
2021/12/05 15:02:42;;;;;;;1.00;1.00;;;;;;;;;;5116690;28;20245;-82
2021/12/05 15:05:14;;;;;;;0.70;0.70;;;;;;;;;;5112354;28;20279;-82
2021/12/05 15:07:44;;;;;;;0.80;0.80;;;;;;;;;;5110356;28;20204;-83
2021/12/05 15:10:15;;;;;;;1.33;1.23;;;;;;;;;;5116522;28;20195;-83
2021/12/05 15:12:42;;;;;;;1.00;1.00;;;;;;;;;;5107699;28;20596;-83
2021/12/05 15:15:12;;;;;;;1.90;0.98;;;;;;;;;;5097270;28;20192;-84
2021/12/05 15:17:42;;;;;;;0.60;0.60;;;;;;;;;;5102433;28;20199;-84
2021/12/05 15:20:15;;;;;;;0.90;0.90;;;;;;;;;;5110978;28;20204;-83
2021/12/05 15:22:44;;;;;;;1.40;1.30;;;;;;;;;;5111328;28;20238;-83
2021/12/05 15:25:16;;;;;;;1.00;1.00;;;;;;;;;;5105292;28;20941;-83
2021/12/05 15:27:44;;;;;;;1.05;1.05;;;;;;;;;;5093763;28;20192;-82
2021/12/05 15:30:14;;;;;;;1.00;1.00;;;;;;;;;;5094468;28;20264;-83
2021/12/05 15:32:44;;;;;;;1.25;1.15;;;;;;;;;;5093985;28;20212;-81
2021/12/05 15:35:16;;;;;;;1.25;1.15;;;;;;;;;;5094456;28;20181;-83
2021/12/05 15:37:48;;;;;;;1.50;1.35;;;;;;;;;;5094099;28;20188;-82
2021/12/05 15:40:16;;;;;;;1.30;1.15;;;;;;;;;;5097001;28;20184;-83
2021/12/05 15:42:43;;;;;;;1.10;1.10;;;;;;;;;;5114303;28;20572;-82
2021/12/05 15:45:20;;;;;;;1.48;1.38;;;;;;;;;;5114779;28;20191;-82
2021/12/05 15:47:49;;;;;;;0.90;0.90;;;;;;;;;;5115819;28;20183;-83
2021/12/05 15:50:19;;;;;;;1.35;1.33;;;;;;;;;;5114592;28;20688;-82
2021/12/05 15:52:50;;;;;;;0.98;0.98;;;;;;;;;;5114300;28;20175;-85
2021/12/05 15:55:21;;;;;;;3.05;1.52;;;;;;;;;;5115441;28;20188;-84
2021/12/05 15:57:52;;;;;;;1.70;1.60;;;;;;;;;;5110653;28;20723;-82
2021/12/05 16:00:26;;;;;;;1.85;1.73;;;;;;;;;;5104011;28;20199;-81
2021/12/05 16:03:02;;;;;;;2.25;2.15;;;;;;;;;;5115676;28;20184;-83
2021/12/05 16:05:32;;;;;;;1.70;1.60;;;;;;;;;;5109800;28;20191;-82
2021/12/05 16:08:06;;;;;;;3.05;2.25;;;;;;;;;;5115558;28;20196;-84
2021/12/05 16:10:36;;;;;;;1.67;1.58;;;;;;;;;;5114528;28;20656;-83
2021/12/05 16:13:12;;;;;;;1.80;1.70;;;;;;;;;;5108172;28;20184;-82
2021/12/05 16:15:40;;;;;;;1.20;1.20;;;;;;;;;;5114823;28;20653;-83
2021/12/05 16:18:08;;;;;;;1.63;1.52;;;;;;;;;;5115884;28;20268;-82
2021/12/05 16:20:43;;;;;;;1.27;1.20;;;;;;;;;;5113909;28;20279;-81
2021/12/05 16:23:16;;;;;;;1.45;1.35;;;;;;;;;;5109336;28;20271;-81
2021/12/05 16:26:03;;;;;;;1.45;1.33;;;;;;;;;;5099383;28;20184;-81
2021/12/05 16:28:36;;;;;;;2.53;2.33;;;;;;;;;;5107291;28;20206;-82
2021/12/05 16:31:11;;;;;;;3.45;3.15;;;;;;;;;;5114328;28;20223;-83
2021/12/05 16:33:40;;;;;;;3.38;3.17;;;;;;;;;;5115778;28;20194;-84
2021/12/05 16:36:09;;;;;;;3.72;3.40;;;;;;;;;;5114703;28;20187;-83
2021/12/05 16:38:40;;;;;;;3.30;2.97;;;;;;;;;;5114241;28;20184;-82
2021/12/05 16:41:26;;;;;;;3.45;3.15;;;;;;;;;;5114631;28;20222;-83
2021/12/05 16:44:00;;;;;;;3.35;3.05;;;;;;;;;;5113489;28;20219;-83
2021/12/05 16:46:34;;;;;;;1.60;1.50;;;;;;;;;;5114203;28;20564;-83
2021/12/05 16:49:06;;;;;;;2.67;2.33;;;;;;;;;;5114343;28;20191;-83
2021/12/05 16:51:39;;;;;;;1.58;1.48;;;;;;;;;;5113686;28;20981;-82
2021/12/05 16:54:18;;;;;;;1.70;1.58;;;;;;;;;;5113775;28;20660;-81
2021/12/05 16:56:52;;;;;;;1.23;1.23;;;;;;;;;;5114451;28;20187;-85
2021/12/05 16:59:25;;;;;;;1.88;1.77;;;;;;;;;;5114689;28;20557;-85
2021/12/05 17:02:25;;;;;;;1.52;1.40;;;;;;;;;;5116128;28;20230;-84
2021/12/05 17:04:59;;;;;;;1.10;1.10;;;;;;;;;;5031152;28;20698;-84
2021/12/05 17:07:55;;;;;;;1.27;1.27;;;;;;;;;;5101330;28;20214;-83
2021/12/05 17:10:38;;;;;;;1.33;1.08;;;;;;;;;;5113959;28;20248;-81
2021/12/05 17:13:20;;;;;;;1.50;1.40;;;;;;;;;;5104360;28;20184;-83
2021/12/05 17:15:52;;;;;;;1.55;1.45;;;;;;;;;;5093387;28;20185;-82
2021/12/05 17:18:23;;;;;;;1.88;1.77;;;;;;;;;;5094543;28;20191;-83
2021/12/05 17:20:53;;;;;;;2.17;1.35;;;;;;;;;;5099003;28;20236;-83
2021/12/05 17:23:27;;;;;;;0.77;0.77;;;;;;;;;;5098241;28;20200;-82
2021/12/05 17:26:06;;;;;;;1.17;1.08;;;;;;;;;;5097381;28;20200;-83
2021/12/05 17:28:38;;;;;;;1.08;1.08;;;;;;;;;;5098263;28;20181;-83
2021/12/05 17:31:10;;;;;;;1.83;1.73;;;;;;;;;;5097734;28;20212;-83
2021/12/05 17:33:42;;;;;;;1.05;1.05;;;;;;;;;;5096772;28;20195;-85
2021/12/05 17:36:28;;;;;;;0.90;0.90;;;;;;;;;;5097439;28;20185;-85
2021/12/05 17:39:04;;;;;;;1.42;1.42;;;;;;;;;;5097487;28;20177;-83
2021/12/05 17:41:33;;;;;;;1.05;1.02;;;;;;;;;;5105183;28;20207;-84
2021/12/05 17:44:03;;;;;;;1.48;1.38;;;;;;;;;;5097301;28;20196;-83
2021/12/05 17:46:34;;;;;;;1.27;1.27;;;;;;;;;;5097127;28;20195;-84
2021/12/05 17:49:05;;;;;;;0.98;0.98;;;;;;;;;;5099074;28;20561;-84
2021/12/05 17:51:38;;;;;;;0.90;0.90;;;;;;;;;;5117149;28;20720;-84
2021/12/05 17:54:08;;;;;;;1.20;1.10;;;;;;;;;;5117329;28;20188;-83
2021/12/05 17:56:39;;;;;;;1.58;1.48;;;;;;;;;;5116992;28;20305;-84
2021/12/05 17:59:26;;;;;;;2.03;1.52;;;;;;;;;;5116714;28;20664;-84
2021/12/05 18:04:41;;;;;;;1.00;1.00;;;;;;;;;;5117164;28;20206;-84
2021/12/05 18:07:10;;;;;;;1.10;1.08;;;;;;;;;;5117359;28;20180;-83
2021/12/05 18:09:39;;;;;;;1.55;1.40;;;;;;;;;;5117495;28;20206;-84
2021/12/05 18:12:12;;;;;;;2.05;1.60;;;;;;;;;;5117303;28;20305;-84
2021/12/05 18:14:40;;;;;;;1.42;1.33;;;;;;;;;;5116914;28;20656;-83
2021/12/05 18:17:10;;;;;;;1.42;1.40;;;;;;;;;;5117401;28;20286;-83
2021/12/05 18:19:40;;;;;;;2.40;1.60;;;;;;;;;;5116470;28;20596;-84
2021/12/05 18:22:08;;;;;;;13.90;11.63;;;;;;;;;;5116067;28;20723;-83
2021/12/05 18:24:35;;;;;;;3.60;2.70;;;;;;;;;;5116465;28;20224;-84
2021/12/05 18:27:05;;;;;;;4.10;2.63;;;;;;;;;;5116560;28;20198;-83
2021/12/05 18:29:32;;;;;;;2.45;2.20;;;;;;;;;;5115705;28;20180;-82
2021/12/05 18:32:00;;;;;;;1.67;1.58;;;;;;;;;;5116404;28;20215;-84
2021/12/05 18:34:30;;;;;;;1.75;1.65;;;;;;;;;;5116257;28;20195;-83
2021/12/05 18:37:01;;;;;;;1.40;1.30;;;;;;;;;;5116484;28;20191;-83
2021/12/05 18:39:33;;;;;;;0.93;0.90;;;;;;;;;;5116996;28;20216;-83
2021/12/05 18:42:06;;;;;;;1.70;1.60;;;;;;;;;;5117297;28;20725;-83
2021/12/05 18:44:39;;;;;;;1.23;1.13;;;;;;;;;;5117172;28;20200;-84
2021/12/05 18:47:08;;;;;;;1.65;1.48;;;;;;;;;;5116355;28;20248;-83
2021/12/05 18:49:36;;;;;;;1.23;1.10;;;;;;;;;;5118291;28;20211;-83
2021/12/05 18:52:07;;;;;;;1.30;1.20;;;;;;;;;;5117982;28;20207;-84
2021/12/05 18:54:41;;;;;;;1.48;1.38;;;;;;;;;;5117793;28;20192;-83
2021/12/05 18:57:12;;;;;;;1.75;1.10;;;;;;;;;;5117873;28;20224;-83
2021/12/05 18:59:46;;;;;;;0.80;0.80;;;;;;;;;;5118778;28;20676;-84
2021/12/05 19:05:06;;;;;;;0.98;0.98;;;;;;;;;;5117775;28;20230;-84
2021/12/05 19:07:44;;;;;;;1.00;1.00;;;;;;;;;;5118028;28;20681;-83
2021/12/05 19:13:01;;;;;;;2.10;1.90;;;;;;;;;;5097009;28;20180;-83
2021/12/05 19:15:29;;;;;;;2.50;2.30;;;;;;;;;;5097931;28;20260;-83
2021/12/05 19:17:57;;;;;;;4.03;2.80;;;;;;;;;;5113263;28;20199;-83
2021/12/05 19:20:27;;;;;;;5.00;4.10;;;;;;;;;;5116964;28;20661;-82
2021/12/05 19:22:57;;;;;;;4.57;2.60;;;;;;;;;;5116282;28;20192;-81
2021/12/05 19:25:30;;;;;;;1.90;1.40;;;;;;;;;;5116586;28;20239;-83
2021/12/05 19:28:00;;;;;;;1.70;1.30;;;;;;;;;;5115079;28;20192;-82
2021/12/05 19:30:31;;;;;;;1.25;1.00;;;;;;;;;;5116088;28;20191;-82